Pickens, Oklahoma
Current Conditions -  °F | °C
As of 12:15 PM on Monday 26 Jan 2015 (Local Time) from K4O4 Reporting Station
Clear Clear  
Wind Chill: 57°   Ceiling: Unl
Heat Index: 57°   Visibility: 10mi
Dew Point: 34°   Wind: 5mph
Humidity: 41%   Direction: 230°SW
Pressure: 30.13"   Gusts: NA
Location:  34.4°N, 95.01°W
Report Text: K4O4 261815Z AUTO 23004KT 10SM CLR 14/01 A3013 RMK AO2
Loading
Personal Weather Stations






























Interactive Weather Map New forecast layout! Learn more

10-Day Weather Forecast

Advertisements
Track Severe Weather on mobile